createdAt,value
2022-09-13T00:01:04.065Z,14.87
2022-09-13T00:03:32.270Z,14.77
2022-09-13T00:06:01.630Z,14.72
2022-09-13T00:08:29.505Z,14.72
2022-09-13T00:10:57.186Z,14.76
2022-09-13T00:13:26.262Z,14.75
2022-09-13T00:15:53.958Z,14.71
2022-09-13T00:18:21.671Z,14.87
2022-09-13T00:20:49.406Z,14.72
2022-09-13T00:23:17.135Z,14.74
2022-09-13T00:25:44.807Z,14.52
2022-09-13T00:28:12.586Z,14.55
2022-09-13T00:30:41.622Z,14.54
2022-09-13T00:33:09.379Z,14.50
2022-09-13T00:35:37.067Z,14.56
2022-09-13T00:38:04.905Z,14.50
2022-09-13T00:40:32.585Z,14.44
2022-09-13T00:43:00.242Z,14.44
2022-09-13T00:45:28.065Z,14.54
2022-09-13T00:48:02.150Z,14.44
2022-09-13T00:50:36.114Z,14.44
2022-09-13T00:53:09.032Z,14.27
2022-09-13T00:55:42.488Z,14.40
2022-09-13T00:58:14.355Z,14.43
2022-09-13T01:00:42.319Z,14.51
2022-09-13T01:03:15.022Z,14.47
2022-09-13T01:05:47.131Z,14.47
2022-09-13T01:08:22.769Z,14.41
2022-09-13T01:10:52.910Z,14.54
2022-09-13T01:13:23.673Z,14.37
2022-09-13T01:15:51.945Z,14.40
2022-09-13T01:18:21.501Z,14.34
2022-09-13T01:21:30.637Z,14.30
2022-09-13T01:24:29.891Z,14.17
2022-09-13T01:27:20.639Z,14.15
2022-09-13T01:30:20.812Z,14.25
2022-09-13T01:33:07.512Z,14.29
2022-09-13T01:35:49.569Z,14.17
2022-09-13T01:38:37.689Z,14.23
2022-09-13T01:41:20.062Z,14.21
2022-09-13T01:43:53.791Z,14.20
2022-09-13T01:46:30.119Z,14.24
2022-09-13T01:49:04.245Z,14.14
2022-09-13T01:51:36.155Z,14.11
2022-09-13T01:54:14.686Z,14.10
2022-09-13T01:56:47.134Z,14.11
2022-09-13T01:59:20.556Z,14.15
2022-09-13T02:01:56.747Z,14.05
2022-09-13T02:04:28.290Z,14.12
2022-09-13T02:07:04.151Z,14.11
2022-09-13T02:09:36.227Z,14.10
2022-09-13T02:12:08.111Z,13.98
2022-09-13T02:14:39.196Z,14.03
2022-09-13T02:17:13.717Z,14.06
2022-09-13T02:19:48.317Z,14.08
2022-09-13T02:22:21.020Z,14.01
2022-09-13T02:24:55.733Z,14.08
2022-09-13T02:27:27.217Z,13.96
2022-09-13T02:29:59.695Z,13.84
2022-09-13T02:32:33.735Z,13.87
2022-09-13T02:35:06.371Z,13.85
2022-09-13T02:37:37.683Z,13.78
2022-09-13T02:40:09.374Z,13.79
2022-09-13T02:42:44.224Z,13.90
2022-09-13T02:45:14.450Z,13.65
2022-09-13T02:47:48.558Z,13.81
2022-09-13T02:50:33.872Z,13.64
2022-09-13T02:53:06.858Z,13.68
2022-09-13T02:55:45.915Z,13.90
2022-09-13T02:58:24.891Z,13.76
2022-09-13T03:00:55.143Z,13.61
2022-09-13T03:03:25.362Z,13.64
2022-09-13T03:05:54.398Z,13.66
2022-09-13T03:08:23.297Z,13.60
2022-09-13T03:11:02.506Z,13.58
2022-09-13T03:13:41.191Z,13.71
2022-09-13T03:16:39.642Z,13.59
2022-09-13T03:19:26.577Z,13.48
2022-09-13T03:22:08.109Z,13.46
2022-09-13T03:24:51.026Z,13.58
2022-09-13T03:27:29.375Z,13.37
2022-09-13T03:30:03.884Z,13.25
2022-09-13T03:32:38.870Z,13.26
2022-09-13T03:35:19.347Z,12.94
2022-09-13T03:37:56.869Z,13.18
2022-09-13T03:40:36.490Z,13.26
2022-09-13T03:43:11.868Z,13.24
2022-09-13T03:45:43.969Z,13.25
2022-09-13T03:48:13.001Z,13.22
2022-09-13T03:50:43.452Z,13.25
2022-09-13T03:53:13.198Z,13.33
2022-09-13T03:55:43.056Z,13.22
2022-09-13T03:58:13.566Z,13.25
2022-09-13T04:00:41.504Z,13.20
2022-09-13T04:03:10.424Z,13.22
2022-09-13T04:05:39.056Z,13.22
2022-09-13T04:08:09.050Z,13.06
2022-09-13T04:10:37.790Z,13.10
2022-09-13T04:13:06.260Z,13.05
2022-09-13T04:15:34.120Z,13.12
2022-09-13T04:18:02.050Z,13.11
2022-09-13T04:20:29.822Z,13.21
2022-09-13T04:22:58.486Z,13.14
2022-09-13T04:25:27.717Z,13.24
2022-09-13T04:27:55.994Z,13.15
2022-09-13T04:30:24.002Z,13.18
2022-09-13T04:32:51.668Z,13.13
2022-09-13T04:35:19.879Z,13.08
2022-09-13T04:37:47.607Z,13.11
2022-09-13T04:40:15.524Z,13.07
2022-09-13T04:42:46.061Z,13.14
2022-09-13T04:45:14.101Z,13.18
2022-09-13T04:47:41.878Z,13.17
2022-09-13T04:50:09.885Z,13.24
2022-09-13T04:52:37.599Z,13.25
2022-09-13T04:55:05.996Z,13.15
2022-09-13T04:57:34.105Z,13.09
2022-09-13T05:00:03.882Z,13.07
2022-09-13T05:02:31.635Z,13.18
2022-09-13T05:04:59.519Z,13.09
2022-09-13T05:07:27.274Z,13.07
2022-09-13T05:09:55.028Z,13.13
2022-09-13T05:12:22.693Z,13.11
2022-09-13T05:14:50.377Z,13.12
2022-09-13T05:17:20.579Z,13.16
2022-09-13T05:19:49.364Z,13.17
2022-09-13T05:22:17.059Z,13.25
2022-09-13T05:24:45.119Z,13.35
2022-09-13T05:27:12.857Z,13.37
2022-09-13T05:29:40.601Z,13.44
2022-09-13T05:32:08.324Z,13.48
2022-09-13T05:34:37.414Z,13.51
2022-09-13T05:37:05.548Z,13.60
2022-09-13T05:39:54.026Z,13.72
2022-09-13T05:42:20.981Z,13.85
2022-09-13T05:44:48.719Z,13.96
2022-09-13T05:47:16.892Z,14.24
2022-09-13T05:50:08.869Z,14.36
2022-09-13T05:52:33.975Z,14.52
2022-09-13T05:55:01.725Z,14.62
2022-09-13T05:57:29.458Z,14.76
2022-09-13T05:59:57.112Z,14.88
2022-09-13T06:02:24.984Z,14.98
2022-09-13T06:04:54.185Z,15.12
2022-09-13T06:07:21.880Z,15.16
2022-09-13T06:09:49.609Z,15.39
2022-09-13T06:12:17.283Z,15.64
2022-09-13T06:14:44.974Z,15.98
2022-09-13T06:17:12.678Z,16.08
2022-09-13T06:19:40.844Z,16.29
2022-09-13T06:22:09.915Z,16.63
2022-09-13T06:24:38.328Z,16.86
2022-09-13T06:27:06.508Z,16.91
2022-09-13T06:29:34.275Z,16.89
2022-09-13T06:32:01.994Z,17.00
2022-09-13T06:34:31.446Z,17.05
2022-09-13T06:36:59.333Z,17.46
2022-09-13T06:39:29.089Z,17.61
2022-09-13T06:41:56.746Z,17.79
2022-09-13T06:44:24.556Z,17.90
2022-09-13T06:46:52.415Z,18.03
2022-09-13T06:49:20.197Z,18.25
2022-09-13T06:51:48.031Z,18.43
2022-09-13T06:54:15.781Z,18.37
2022-09-13T06:56:44.889Z,18.88
2022-09-13T06:59:12.676Z,19.34
2022-09-13T07:01:41.623Z,19.34
2022-09-13T07:04:11.429Z,19.50
2022-09-13T07:06:40.865Z,20.13
2022-09-13T07:09:10.604Z,20.57
2022-09-13T07:11:40.415Z,20.74
2022-09-13T07:14:09.880Z,20.97
2022-09-13T07:16:39.096Z,21.14
2022-09-13T07:19:08.641Z,21.22
2022-09-13T07:21:36.659Z,21.34
2022-09-13T07:24:05.476Z,20.89
2022-09-13T07:26:33.329Z,21.21
2022-09-13T07:29:02.536Z,21.59
2022-09-13T07:31:33.116Z,21.47
2022-09-13T07:34:02.905Z,21.81
2022-09-13T07:36:32.775Z,22.07
2022-09-13T07:39:01.847Z,22.37
2022-09-13T07:41:31.607Z,22.12
2022-09-13T07:44:00.909Z,22.77
2022-09-13T07:46:32.763Z,23.38
2022-09-13T07:49:01.229Z,23.57
2022-09-13T07:51:30.973Z,23.24
2022-09-13T07:54:00.319Z,23.62
2022-09-13T07:56:30.128Z,24.11
2022-09-13T07:59:00.850Z,24.34
2022-09-13T08:01:31.833Z,24.70
2022-09-13T08:04:01.628Z,23.90
2022-09-13T08:06:31.013Z,23.86
2022-09-13T08:08:59.364Z,24.70
2022-09-13T08:11:30.285Z,24.56
2022-09-13T08:13:58.545Z,25.46
2022-09-13T08:16:28.031Z,26.36
2022-09-13T08:18:59.347Z,25.87
2022-09-13T08:21:27.901Z,26.08
2022-09-13T08:23:56.840Z,26.72
2022-09-13T08:26:25.137Z,26.51
2022-09-13T08:28:57.407Z,26.88
2022-09-13T08:31:25.394Z,26.00
2022-09-13T08:33:53.409Z,26.20
2022-09-13T08:36:23.979Z,26.62
2022-09-13T08:38:52.880Z,26.88
2022-09-13T08:41:52.658Z,27.14
2022-09-13T08:44:27.066Z,26.91
2022-09-13T08:47:03.551Z,26.25
2022-09-13T08:49:35.614Z,25.69
2022-09-13T08:52:25.447Z,26.22
2022-09-13T08:54:58.117Z,27.20
2022-09-13T08:57:33.657Z,27.74
2022-09-13T09:00:07.965Z,28.17
2022-09-13T09:02:58.534Z,27.62
2022-09-13T09:05:30.287Z,27.43
2022-09-13T09:08:02.082Z,27.83
2022-09-13T09:10:33.834Z,28.66
2022-09-13T09:13:07.480Z,29.37
2022-09-13T09:15:40.288Z,28.64
2022-09-13T09:18:14.462Z,28.04
2022-09-13T09:21:10.478Z,27.76
2022-09-13T09:23:47.328Z,27.81
2022-09-13T09:26:17.722Z,29.29
2022-09-13T09:28:48.681Z,28.46
2022-09-13T09:31:23.448Z,27.77
2022-09-13T09:34:04.951Z,27.69
2022-09-13T09:36:40.322Z,28.81
2022-09-13T09:39:13.070Z,29.30
2022-09-13T09:41:41.110Z,28.95
2022-09-13T09:44:18.740Z,29.71
2022-09-13T09:46:51.153Z,28.94
2022-09-13T09:49:39.791Z,29.84
2022-09-13T09:52:11.260Z,29.12
2022-09-13T09:54:41.693Z,29.87
2022-09-13T09:57:09.943Z,29.10
2022-09-13T09:59:37.656Z,30.24
2022-09-13T10:02:17.229Z,29.84
2022-09-13T10:04:56.689Z,29.58
2022-09-13T10:07:29.178Z,29.78
2022-09-13T10:10:06.370Z,28.81
2022-09-13T10:12:36.691Z,29.46
2022-09-13T10:15:08.303Z,30.01
2022-09-13T10:17:36.925Z,30.93
2022-09-13T10:20:20.422Z,31.54
2022-09-13T10:23:12.308Z,30.88
2022-09-13T10:25:47.940Z,29.67
2022-09-13T10:28:20.275Z,29.49
2022-09-13T10:30:54.134Z,30.60
2022-09-13T10:33:31.130Z,31.40
2022-09-13T10:36:01.796Z,31.94
2022-09-13T10:38:33.195Z,32.75
2022-09-13T10:41:05.945Z,33.69
2022-09-13T10:43:34.674Z,32.53
2022-09-13T10:46:05.819Z,31.91
2022-09-13T10:48:46.362Z,32.64
2022-09-13T10:51:24.092Z,33.15
2022-09-13T10:53:52.229Z,32.72
2022-09-13T10:56:24.342Z,33.80
2022-09-13T10:58:52.156Z,34.50
2022-09-13T11:01:44.172Z,35.36
2022-09-13T11:04:43.384Z,33.09
2022-09-13T11:07:27.512Z,32.71
2022-09-13T11:10:03.117Z,34.53
2022-09-13T11:12:41.270Z,33.16
2022-09-13T11:15:21.599Z,33.41
2022-09-13T11:18:07.248Z,33.72
2022-09-13T11:20:46.073Z,32.53
2022-09-13T11:23:41.542Z,32.03
2022-09-13T11:26:25.962Z,31.92
2022-09-13T11:29:03.290Z,32.68
2022-09-13T11:31:42.921Z,31.73
2022-09-13T11:34:22.619Z,31.68
2022-09-13T11:37:04.352Z,33.32
2022-09-13T11:39:36.392Z,32.83
2022-09-13T11:42:19.106Z,31.88
2022-09-13T11:45:01.863Z,32.35
2022-09-13T11:47:41.475Z,31.75
2022-09-13T11:50:26.505Z,31.14
2022-09-13T11:53:06.649Z,30.75
2022-09-13T11:55:39.528Z,30.79
2022-09-13T11:58:14.224Z,30.05
2022-09-13T12:00:46.453Z,30.41
2022-09-13T12:03:21.807Z,30.37
2022-09-13T12:05:53.794Z,30.86
2022-09-13T12:08:25.432Z,31.81
2022-09-13T12:10:57.178Z,32.22
2022-09-13T12:13:28.095Z,32.42
2022-09-13T12:16:02.224Z,32.36
2022-09-13T12:18:35.505Z,32.44
2022-09-13T12:21:09.377Z,32.90
2022-09-13T12:23:40.770Z,34.34
2022-09-13T12:26:14.386Z,32.97
2022-09-13T12:28:45.808Z,34.66
2022-09-13T12:31:19.616Z,34.05
2022-09-13T12:33:55.897Z,33.82
2022-09-13T12:36:58.014Z,33.40
2022-09-13T12:39:42.762Z,33.06
2022-09-13T12:42:31.092Z,31.36
2022-09-13T12:45:21.846Z,30.16
2022-09-13T12:48:11.902Z,29.52
2022-09-13T12:50:50.682Z,28.72
2022-09-13T12:53:46.958Z,27.85
2022-09-13T12:56:31.131Z,27.65
2022-09-13T12:59:14.586Z,27.50
2022-09-13T13:01:47.505Z,27.32
2022-09-13T13:04:21.448Z,26.99
2022-09-13T13:06:52.005Z,26.81
2022-09-13T13:09:29.560Z,27.10
2022-09-13T13:11:59.631Z,27.17
2022-09-13T13:14:53.162Z,26.95
2022-09-13T13:17:52.015Z,26.84
2022-09-13T13:20:45.961Z,26.84
2022-09-13T13:23:28.782Z,26.76
2022-09-13T13:26:02.992Z,26.83
2022-09-13T13:28:51.938Z,26.81
2022-09-13T13:31:41.253Z,27.15
2022-09-13T13:34:31.744Z,27.14
2022-09-13T13:37:05.844Z,27.26
2022-09-13T13:39:36.900Z,27.43
2022-09-13T13:42:13.776Z,27.79
2022-09-13T13:45:17.721Z,27.59
2022-09-13T13:48:20.920Z,27.31
2022-09-13T13:51:15.535Z,27.06
2022-09-13T13:53:48.044Z,27.01
2022-09-13T13:56:30.703Z,26.76
2022-09-13T13:59:04.609Z,26.70
2022-09-13T14:01:36.546Z,26.21
2022-09-13T14:04:31.375Z,26.51
2022-09-13T14:07:18.971Z,26.55
2022-09-13T14:09:55.515Z,26.83
2022-09-13T14:12:36.071Z,27.08
2022-09-13T14:15:28.248Z,26.94
2022-09-13T14:18:40.196Z,27.22
2022-09-13T14:21:21.499Z,27.34
2022-09-13T14:23:49.212Z,27.31
2022-09-13T14:26:18.597Z,27.72
2022-09-13T14:28:46.412Z,27.61
2022-09-13T14:31:20.414Z,27.59
2022-09-13T14:33:49.024Z,28.04
2022-09-13T14:36:20.545Z,27.99
2022-09-13T14:38:55.082Z,28.00
2022-09-13T14:41:33.217Z,27.67
2022-09-13T14:44:23.776Z,27.30
2022-09-13T14:47:02.083Z,27.39
2022-09-13T14:49:33.354Z,27.40
2022-09-13T14:52:05.338Z,27.42
2022-09-13T14:54:38.809Z,27.46
2022-09-13T14:57:10.573Z,27.15
2022-09-13T14:59:43.326Z,26.99
2022-09-13T15:02:19.893Z,26.90
2022-09-13T15:04:51.328Z,26.79
2022-09-13T15:07:23.582Z,26.52
2022-09-13T15:09:56.319Z,26.33
2022-09-13T15:12:28.176Z,26.11
2022-09-13T15:15:14.503Z,25.70
2022-09-13T15:17:56.585Z,25.66
2022-09-13T15:20:26.259Z,25.68
2022-09-13T15:22:54.381Z,25.66
2022-09-13T15:25:26.333Z,25.76
2022-09-13T15:27:57.047Z,25.42
2022-09-13T15:30:28.387Z,25.48
2022-09-13T15:33:20.901Z,25.30
2022-09-13T15:35:49.025Z,25.00
2022-09-13T15:38:25.893Z,24.87
2022-09-13T15:41:03.366Z,24.75
2022-09-13T15:43:32.507Z,24.55
2022-09-13T15:46:01.621Z,24.34
2022-09-13T15:48:31.035Z,24.39
2022-09-13T15:51:13.152Z,24.33
2022-09-13T15:53:43.194Z,24.40
2022-09-13T15:56:15.787Z,24.30
2022-09-13T15:58:44.983Z,24.24
2022-09-13T16:01:14.481Z,24.12
2022-09-13T16:03:42.569Z,24.11
2022-09-13T16:06:11.197Z,23.95
2022-09-13T16:08:39.941Z,23.91
2022-09-13T16:11:08.417Z,23.76
2022-09-13T16:13:37.140Z,23.50
2022-09-13T16:16:06.526Z,23.52
2022-09-13T16:18:34.258Z,23.52
2022-09-13T16:21:02.084Z,23.41
2022-09-13T16:23:29.814Z,23.40
2022-09-13T16:25:59.662Z,23.36
2022-09-13T16:28:27.967Z,23.32
2022-09-13T16:30:55.840Z,23.21
2022-09-13T16:33:24.949Z,23.19
2022-09-13T16:35:52.676Z,23.11
2022-09-13T16:38:20.400Z,23.13
2022-09-13T16:40:49.027Z,23.12
2022-09-13T16:43:16.727Z,23.04
2022-09-13T16:45:45.357Z,23.09
2022-09-13T16:48:13.155Z,23.11
2022-09-13T16:50:42.859Z,22.87
2022-09-13T16:53:10.652Z,22.88
2022-09-13T16:55:38.415Z,22.68
2022-09-13T16:58:06.251Z,22.65
2022-09-13T17:00:33.972Z,22.60
2022-09-13T17:03:01.721Z,22.55
2022-09-13T17:05:29.748Z,22.51
2022-09-13T17:07:59.020Z,22.42
2022-09-13T17:10:26.952Z,22.52
2022-09-13T17:12:54.703Z,22.31
2022-09-13T17:15:22.425Z,22.16
2022-09-13T17:17:50.094Z,22.07
2022-09-13T17:20:17.856Z,22.15
2022-09-13T17:22:45.573Z,21.99
2022-09-13T17:25:16.065Z,21.98
2022-09-13T17:27:43.906Z,21.94
2022-09-13T17:30:12.909Z,21.95
2022-09-13T17:32:40.692Z,21.85
2022-09-13T17:35:09.096Z,21.84
2022-09-13T17:37:36.856Z,21.87
2022-09-13T17:40:05.114Z,21.83
2022-09-13T17:42:34.260Z,21.75
2022-09-13T17:45:01.973Z,21.65
2022-09-13T17:47:29.637Z,21.66
2022-09-13T17:49:59.033Z,21.62
2022-09-13T17:52:26.727Z,21.52
2022-09-13T17:54:54.436Z,21.39
2022-09-13T17:57:22.178Z,21.37
2022-09-13T17:59:52.223Z,21.41
2022-09-13T18:02:21.783Z,21.42
2022-09-13T18:04:51.553Z,21.43
2022-09-13T18:07:19.480Z,21.43
2022-09-13T18:09:47.312Z,21.34
2022-09-13T18:12:14.990Z,21.33
2022-09-13T18:14:42.697Z,21.31
2022-09-13T18:17:13.247Z,21.39
2022-09-13T18:19:46.393Z,21.35
2022-09-13T18:22:14.758Z,21.36
2022-09-13T18:24:42.636Z,21.21
2022-09-13T18:27:10.346Z,21.19
2022-09-13T18:29:38.059Z,21.10
2022-09-13T18:32:05.941Z,21.04
2022-09-13T18:34:34.996Z,21.01
2022-09-13T18:37:02.711Z,20.93
2022-09-13T18:39:30.499Z,20.87
2022-09-13T18:41:58.296Z,20.97
2022-09-13T18:44:25.994Z,20.88
2022-09-13T18:46:54.301Z,20.90
2022-09-13T18:49:22.008Z,20.88
2022-09-13T18:51:51.139Z,20.93
2022-09-13T18:54:19.755Z,20.95
2022-09-13T18:56:48.734Z,20.92
2022-09-13T18:59:16.411Z,20.90
2022-09-13T19:01:45.292Z,20.90
2022-09-13T19:04:15.229Z,20.79
2022-09-13T19:06:44.345Z,20.93
2022-09-13T19:09:14.474Z,20.85
2022-09-13T19:11:48.244Z,20.74
2022-09-13T19:14:18.300Z,20.58
2022-09-13T19:16:46.114Z,20.63
2022-09-13T19:19:14.017Z,20.71
2022-09-13T19:21:42.228Z,20.69
2022-09-13T19:24:17.752Z,20.60
2022-09-13T19:26:50.555Z,20.66
2022-09-13T19:29:20.796Z,20.57
2022-09-13T19:31:49.978Z,20.62
2022-09-13T19:34:18.641Z,20.65
2022-09-13T19:36:47.280Z,20.58
2022-09-13T19:39:15.141Z,20.64
2022-09-13T19:41:43.066Z,20.79
2022-09-13T19:44:13.776Z,20.60
2022-09-13T19:46:42.518Z,20.56
2022-09-13T19:49:13.741Z,20.44
2022-09-13T19:51:42.863Z,20.61
2022-09-13T19:54:13.685Z,20.64
2022-09-13T19:56:43.331Z,20.58
2022-09-13T19:59:15.106Z,20.49
2022-09-13T20:01:44.893Z,20.53
2022-09-13T20:04:14.359Z,20.39
2022-09-13T20:06:44.152Z,20.47
2022-09-13T20:09:13.015Z,20.49
2022-09-13T20:11:44.962Z,20.50
2022-09-13T20:14:14.471Z,20.52
2022-09-13T20:16:43.784Z,20.36
2022-09-13T20:19:36.786Z,20.24
2022-09-13T20:22:03.234Z,20.24
2022-09-13T20:24:30.959Z,20.36
2022-09-13T20:26:58.627Z,20.31
2022-09-13T20:29:27.674Z,20.30
2022-09-13T20:31:55.580Z,20.34
2022-09-13T20:34:23.439Z,20.32
2022-09-13T20:36:51.161Z,20.21
2022-09-13T20:39:19.033Z,20.19
2022-09-13T20:41:49.268Z,20.13
2022-09-13T20:44:17.003Z,20.16
2022-09-13T20:46:46.203Z,20.12
2022-09-13T20:49:13.971Z,20.03
2022-09-13T20:51:41.753Z,19.92
2022-09-13T20:54:11.919Z,20.06
2022-09-13T20:56:40.351Z,20.14
2022-09-13T20:59:08.182Z,20.21
2022-09-13T21:01:36.342Z,20.10
2022-09-13T21:04:06.116Z,20.06
2022-09-13T21:06:39.593Z,20.08
2022-09-13T21:09:09.343Z,20.13
2022-09-13T21:11:38.561Z,20.04
2022-09-13T21:14:08.730Z,20.16
2022-09-13T21:16:39.004Z,20.16
2022-09-13T21:19:09.116Z,20.11
2022-09-13T21:21:38.363Z,20.20
2022-09-13T21:24:09.652Z,20.25
2022-09-13T21:26:39.611Z,20.16
2022-09-13T21:29:07.407Z,20.21
2022-09-13T21:31:35.138Z,20.12
2022-09-13T21:34:05.978Z,20.05
2022-09-13T21:36:37.196Z,20.05
2022-09-13T21:39:05.944Z,20.10
2022-09-13T21:41:33.868Z,19.99
2022-09-13T21:44:01.914Z,19.97
2022-09-13T21:46:31.891Z,19.93
2022-09-13T21:49:02.228Z,19.92
2022-09-13T21:51:33.038Z,19.94
2022-09-13T21:54:05.514Z,19.78
2022-09-13T21:56:35.183Z,19.78
2022-09-13T21:59:04.953Z,19.81
2022-09-13T22:01:35.795Z,19.82
2022-09-13T22:04:03.806Z,19.80
2022-09-13T22:06:34.471Z,19.80
2022-09-13T22:09:06.355Z,19.60
2022-09-13T22:11:38.467Z,19.76
2022-09-13T22:14:07.313Z,19.71
2022-09-13T22:16:37.258Z,19.71
2022-09-13T22:19:09.235Z,19.74
2022-09-13T22:21:37.937Z,19.74
2022-09-13T22:24:08.837Z,19.62
2022-09-13T22:26:39.415Z,19.62
2022-09-13T22:29:08.219Z,19.54
2022-09-13T22:31:38.344Z,19.45
2022-09-13T22:34:06.897Z,19.43
2022-09-13T22:36:34.721Z,19.44
2022-09-13T22:39:02.458Z,19.54
2022-09-13T22:41:33.653Z,19.52
2022-09-13T22:44:03.122Z,19.42
2022-09-13T22:46:33.131Z,19.50
2022-09-13T22:49:01.479Z,19.62
2022-09-13T22:51:29.518Z,19.78
2022-09-13T22:53:57.918Z,19.69
2022-09-13T22:56:27.180Z,19.68
2022-09-13T22:58:57.854Z,19.73
2022-09-13T23:01:27.029Z,19.72
2022-09-13T23:03:55.186Z,19.82
2022-09-13T23:06:25.363Z,19.77
2022-09-13T23:08:54.755Z,20.13
2022-09-13T23:11:24.427Z,20.19
2022-09-13T23:13:56.553Z,20.20
2022-09-13T23:16:27.378Z,20.14
2022-09-13T23:18:56.283Z,20.68
2022-09-13T23:21:28.237Z,20.89
2022-09-13T23:23:56.393Z,20.87
2022-09-13T23:26:26.763Z,20.83
2022-09-13T23:28:56.699Z,20.74
2022-09-13T23:31:27.975Z,20.58
2022-09-13T23:33:58.911Z,20.62
2022-09-13T23:36:29.245Z,20.62
2022-09-13T23:38:59.172Z,20.66
2022-09-13T23:41:27.942Z,20.65
2022-09-13T23:43:55.621Z,20.63
2022-09-13T23:46:24.933Z,20.59
2022-09-13T23:48:52.688Z,20.51
2022-09-13T23:51:23.201Z,20.58
2022-09-13T23:53:51.992Z,20.51
2022-09-13T23:56:20.465Z,20.47
2022-09-13T23:58:48.159Z,20.52
